createdAt,value
2023-04-25T00:00:01.391Z,10.53
2023-04-25T00:05:04.708Z,10.61
2023-04-25T00:10:09.286Z,10.21
2023-04-25T00:15:12.451Z,10.38
2023-04-25T00:20:14.834Z,10.40
2023-04-25T00:25:17.145Z,10.38
2023-04-25T00:30:19.541Z,10.87
2023-04-25T00:35:22.330Z,10.40
2023-04-25T00:40:24.813Z,10.38
2023-04-25T00:45:30.873Z,10.64
2023-04-25T00:50:36.459Z,10.51
2023-04-25T00:55:38.818Z,10.19
2023-04-25T01:00:42.551Z,10.17
2023-04-25T01:05:45.629Z,10.12
2023-04-25T01:10:48.058Z,10.03
2023-04-25T01:15:51.204Z,10.09
2023-04-25T01:20:54.814Z,10.08
2023-04-25T01:25:57.771Z,10.29
2023-04-25T01:31:00.993Z,9.88
2023-04-25T01:36:03.729Z,10.11
2023-04-25T01:41:07.106Z,10.21
2023-04-25T01:46:09.518Z,10.16
2023-04-25T01:51:12.663Z,10.27
2023-04-25T01:56:15.383Z,9.87
2023-04-25T02:01:17.928Z,9.98
2023-04-25T02:06:28.401Z,10.10
2023-04-25T02:11:33.029Z,10.34
2023-04-25T02:16:58.289Z,10.23
2023-04-25T02:22:00.995Z,10.17
2023-04-25T02:27:04.008Z,10.46
2023-04-25T02:32:06.493Z,10.25
2023-04-25T02:37:08.600Z,9.85
2023-04-25T02:42:10.935Z,9.93
2023-04-25T02:47:13.285Z,9.83
2023-04-25T02:52:15.743Z,9.85
2023-04-25T02:57:20.225Z,9.76
2023-04-25T03:02:22.758Z,9.84
2023-04-25T03:07:25.085Z,9.67
2023-04-25T03:12:27.419Z,9.88
2023-04-25T03:17:30.225Z,10.31
2023-04-25T03:22:32.861Z,10.28
2023-04-25T03:27:35.305Z,10.50
2023-04-25T03:32:38.504Z,10.19
2023-04-25T03:37:46.626Z,9.85
2023-04-25T03:42:54.118Z,9.94
2023-04-25T03:47:56.440Z,9.84
2023-04-25T03:52:58.874Z,9.74
2023-04-25T03:58:03.979Z,9.96
2023-04-25T04:03:06.537Z,10.12
2023-04-25T04:08:09.296Z,10.14
2023-04-25T04:13:13.514Z,10.37
2023-04-25T04:18:16.138Z,10.16
2023-04-25T04:23:18.736Z,10.40
2023-04-25T04:28:22.854Z,10.29
2023-04-25T04:33:32.724Z,10.50
2023-04-25T04:38:39.670Z,10.10
2023-04-25T04:43:45.903Z,10.64
2023-04-25T04:49:07.146Z,10.66
2023-04-25T04:54:28.219Z,9.63
2023-04-25T04:59:51.464Z,9.02
2023-04-25T05:05:19.381Z,8.89
2023-04-25T05:10:40.674Z,8.58
2023-04-25T05:16:04.754Z,8.13
2023-04-25T05:21:28.506Z,8.13
2023-04-25T05:26:42.474Z,8.19
2023-04-25T05:32:08.839Z,8.48
2023-04-25T05:37:11.258Z,8.02
2023-04-25T05:42:25.902Z,8.36
2023-04-25T05:47:28.292Z,8.00
2023-04-25T05:52:39.843Z,8.14
2023-04-25T05:58:04.468Z,8.40
2023-04-25T06:03:08.953Z,8.33
2023-04-25T06:08:11.822Z,8.28
2023-04-25T06:13:14.313Z,8.43
2023-04-25T06:18:16.635Z,8.58
2023-04-25T06:23:19.062Z,8.41
2023-04-25T06:28:32.165Z,8.58
2023-04-25T06:33:35.141Z,8.73
2023-04-25T06:38:38.718Z,8.74
2023-04-25T06:43:41.719Z,9.13
2023-04-25T06:48:50.184Z,9.13
2023-04-25T06:53:54.161Z,9.21
2023-04-25T06:59:04.275Z,9.24
2023-04-25T07:04:09.510Z,9.43
2023-04-25T07:09:16.227Z,9.95
2023-04-25T07:14:21.556Z,9.85
2023-04-25T07:19:27.991Z,9.83
2023-04-25T07:24:32.800Z,9.58
2023-04-25T07:29:38.626Z,9.57
2023-04-25T07:34:41.152Z,10.08
2023-04-25T07:39:43.624Z,10.08
2023-04-25T07:44:46.869Z,10.04
2023-04-25T07:49:51.127Z,10.08
2023-04-25T07:54:53.807Z,10.61
2023-04-25T08:00:03.348Z,10.80
2023-04-25T08:05:19.559Z,10.71
2023-04-25T08:10:28.708Z,10.75
2023-04-25T08:15:31.047Z,10.75
2023-04-25T08:20:33.812Z,10.87
2023-04-25T08:25:38.899Z,11.22
2023-04-25T08:30:41.534Z,11.22
2023-04-25T08:35:47.158Z,11.27
2023-04-25T08:40:53.676Z,11.59
2023-04-25T08:46:01.682Z,11.72
2023-04-25T08:51:26.897Z,11.84
2023-04-25T08:56:31.124Z,11.99
2023-04-25T09:01:33.782Z,12.33
2023-04-25T09:06:37.572Z,12.93
2023-04-25T09:11:39.955Z,13.69
2023-04-25T09:16:57.847Z,13.44
2023-04-25T09:22:22.395Z,13.04
2023-04-25T09:27:25.064Z,13.97
2023-04-25T09:32:38.574Z,13.20
2023-04-25T09:37:42.270Z,12.64
2023-04-25T09:43:25.651Z,13.11
2023-04-25T09:48:30.471Z,13.66
2023-04-25T09:53:41.813Z,13.76
2023-04-25T09:59:04.976Z,13.79
2023-04-25T10:04:12.859Z,13.13
2023-04-25T10:09:41.559Z,14.82
2023-04-25T10:14:45.800Z,15.30
2023-04-25T10:19:49.075Z,15.32
2023-04-25T10:24:52.644Z,15.09
2023-04-25T10:30:12.363Z,14.63
2023-04-25T10:35:21.111Z,14.37
2023-04-25T10:40:24.403Z,14.00
2023-04-25T10:45:27.523Z,13.83
2023-04-25T10:50:42.621Z,13.05
2023-04-25T10:55:52.872Z,13.58
2023-04-25T11:00:57.474Z,13.16
2023-04-25T11:06:02.644Z,12.87
2023-04-25T11:11:05.308Z,12.73
2023-04-25T11:16:12.674Z,12.99
2023-04-25T11:21:15.836Z,14.34
2023-04-25T11:26:18.371Z,13.35
2023-04-25T11:31:24.110Z,13.42
2023-04-25T11:36:28.062Z,13.73
2023-04-25T11:41:30.461Z,13.73
2023-04-25T11:46:35.688Z,14.29
2023-04-25T11:51:46.690Z,13.35
2023-04-25T11:56:49.078Z,14.64
2023-04-25T12:01:51.838Z,15.29
2023-04-25T12:06:56.585Z,16.11
2023-04-25T12:12:04.128Z,15.14
2023-04-25T12:17:09.149Z,14.86
2023-04-25T12:22:24.601Z,15.60
2023-04-25T12:27:28.828Z,14.96
2023-04-25T12:32:31.894Z,15.11
2023-04-25T12:37:34.264Z,14.93
2023-04-25T12:42:36.804Z,14.77
2023-04-25T12:47:39.236Z,14.52
2023-04-25T12:52:41.361Z,14.50
2023-04-25T12:57:43.486Z,15.19
2023-04-25T13:02:46.059Z,14.67
2023-04-25T13:07:48.309Z,13.82
2023-04-25T13:12:50.874Z,13.69
2023-04-25T13:17:53.164Z,14.47
2023-04-25T13:22:56.348Z,15.21
2023-04-25T13:27:58.607Z,15.40
2023-04-25T13:33:04.459Z,15.95
2023-04-25T13:38:07.009Z,15.95
2023-04-25T13:43:09.306Z,16.53
2023-04-25T13:48:11.423Z,16.95
2023-04-25T13:53:13.717Z,17.22
2023-04-25T13:58:15.981Z,18.03
2023-04-25T14:03:18.252Z,15.98
2023-04-25T14:08:21.153Z,15.43
2023-04-25T14:13:24.583Z,15.77
2023-04-25T14:18:26.851Z,15.21
2023-04-25T14:23:29.133Z,15.17
2023-04-25T14:28:31.485Z,14.36
2023-04-25T14:33:33.807Z,14.32
2023-04-25T14:38:36.287Z,13.62
2023-04-25T14:43:38.632Z,13.75
2023-04-25T14:48:41.100Z,13.46
2023-04-25T14:53:43.576Z,13.53
2023-04-25T14:58:46.701Z,12.34
2023-04-25T15:03:49.625Z,12.38
2023-04-25T15:08:52.053Z,12.89
2023-04-25T15:13:54.601Z,12.35
2023-04-25T15:18:56.977Z,12.48
2023-04-25T15:23:59.096Z,12.20
2023-04-25T15:29:01.360Z,12.18
2023-04-25T15:34:03.519Z,13.43
2023-04-25T15:39:05.995Z,11.74
2023-04-25T15:44:08.702Z,11.12
2023-04-25T15:49:11.053Z,11.39
2023-04-25T15:54:13.177Z,11.18
2023-04-25T15:59:15.439Z,11.40
2023-04-25T16:04:17.762Z,11.09
2023-04-25T16:09:20.241Z,10.79
2023-04-25T16:14:22.418Z,10.61
2023-04-25T16:19:24.772Z,10.85
2023-04-25T16:24:26.942Z,11.05
2023-04-25T16:29:29.270Z,12.11
2023-04-25T16:34:31.493Z,12.34
2023-04-25T16:39:33.634Z,12.00
2023-04-25T16:44:35.739Z,12.17
2023-04-25T16:49:39.302Z,12.51
2023-04-25T16:54:41.534Z,12.22
2023-04-25T16:59:43.791Z,12.23
2023-04-25T17:04:45.974Z,11.87
2023-04-25T17:09:48.126Z,10.72
2023-04-25T17:14:50.723Z,10.63
2023-04-25T17:19:52.966Z,11.25
2023-04-25T17:24:55.347Z,11.35
2023-04-25T17:29:57.653Z,10.90
2023-04-25T17:35:00.273Z,11.25
2023-04-25T17:40:04.758Z,10.48
2023-04-25T17:45:09.365Z,10.83
2023-04-25T17:50:12.904Z,10.73
2023-04-25T17:55:15.137Z,10.94
2023-04-25T18:00:18.785Z,10.94
2023-04-25T18:05:21.314Z,11.39
2023-04-25T18:10:23.737Z,11.12
2023-04-25T18:15:26.766Z,11.27
2023-04-25T18:20:28.949Z,10.93
2023-04-25T18:25:31.280Z,11.96
2023-04-25T18:30:33.499Z,11.18
2023-04-25T18:35:40.383Z,12.08
2023-04-25T18:40:57.387Z,11.33
2023-04-25T18:46:04.895Z,11.48
2023-04-25T18:51:07.466Z,11.24
2023-04-25T18:56:09.959Z,10.93
2023-04-25T19:01:12.372Z,10.76
2023-04-25T19:06:14.477Z,10.56
2023-04-25T19:16:23.829Z,11.72
2023-04-25T19:21:26.803Z,11.79
2023-04-25T19:26:29.026Z,11.50
2023-04-25T19:31:31.507Z,11.08
2023-04-25T19:36:37.692Z,10.76
2023-04-25T19:41:39.905Z,11.66
2023-04-25T19:46:43.110Z,10.52
2023-04-25T19:51:46.392Z,10.48
2023-04-25T19:56:48.473Z,10.72
2023-04-25T20:01:50.674Z,11.54
2023-04-25T20:06:53.068Z,11.23
2023-04-25T20:11:55.202Z,11.06
2023-04-25T20:16:57.473Z,11.30
2023-04-25T20:21:59.661Z,10.16
2023-04-25T20:27:02.985Z,10.43
2023-04-25T20:32:06.438Z,9.98
2023-04-25T20:37:09.117Z,10.90
2023-04-25T20:42:11.233Z,10.36
2023-04-25T20:47:13.422Z,11.07
2023-04-25T20:52:16.984Z,9.82
2023-04-25T20:57:19.137Z,9.42
2023-04-25T21:02:21.345Z,10.16
2023-04-25T21:07:23.507Z,10.77
2023-04-25T21:12:25.705Z,9.94
2023-04-25T21:17:28.335Z,9.94
2023-04-25T21:22:30.699Z,9.97
2023-04-25T21:27:34.047Z,9.92
2023-04-25T21:32:36.655Z,9.80
2023-04-25T21:37:39.306Z,9.86
2023-04-25T21:42:46.032Z,9.45
2023-04-25T21:47:49.098Z,9.84
2023-04-25T21:52:51.898Z,9.41
2023-04-25T21:57:54.567Z,9.93
2023-04-25T22:02:57.411Z,9.29
2023-04-25T22:07:59.705Z,9.58
2023-04-25T22:13:01.940Z,9.44
2023-04-25T22:18:05.666Z,9.56
2023-04-25T22:23:08.910Z,9.99
2023-04-25T22:28:12.713Z,9.25
2023-04-25T22:33:15.000Z,9.41
2023-04-25T22:38:17.393Z,9.20
2023-04-25T22:43:19.812Z,9.50
2023-04-25T22:48:21.898Z,9.62
2023-04-25T22:53:24.217Z,8.77
2023-04-25T22:58:26.615Z,8.35
2023-04-25T23:03:29.106Z,9.27
2023-04-25T23:08:31.471Z,9.79
2023-04-25T23:13:36.699Z,10.31
2023-04-25T23:18:41.036Z,9.41
2023-04-25T23:23:43.721Z,10.12
2023-04-25T23:28:46.915Z,9.06
2023-04-25T23:33:49.146Z,9.11
2023-04-25T23:38:52.621Z,9.08
2023-04-25T23:43:54.960Z,9.36
2023-04-25T23:48:57.193Z,9.56
2023-04-25T23:53:59.498Z,9.00
2023-04-25T23:59:01.783Z,8.83
